Dobrodošli na spletni strani vremenske postaje Senovo. Vse informacije so informativnega značaja, saj vremenska postaja ni del državne mreže meteoroloških postaj. AKTUALNIH OBVESTIL NI.


Sneg/Led Od: 23-02-2018 00:00 Do: 23:59 Opozorilo za: Sneg/Led Stopnja: Rumena info button

Pogled proti Armezu več informacij Pogled proti Armezu


Lisca več informacij Lisca


Radar strel več informacij blitzortung!


opozorilo za sneg/led več informacij rain snow radar


Obiščite še:

Template documentation
and downloads

And another site



Weather Underground, zgodovina - Tekstovno

Dnevni povzetek za Februar 5, 2018 Enote:  Metrično    Angleško   Obe
« Predhodni Dan
Naslednji Dan »
Dnevni Tedenski Mesečni Letni Po meri
  Višja: Nižja: Povprečje:
Temperatura: -17.8 °C -18.2 °C -17.5 °C
Točka rosišča: -17.8 °C -18.6 °C -18.1 °C
Vlažnost: Humidity % 87 % 92 %
Hitrost vetra: 0 km/h 0 km/h 2.9 km/h
Sunki vetra: 0 km/h - -
Veter:- - SSE
Zračni tlak: 0 hPa 34533.8 hPa -
Padavine: 0 mm    
Historical Graphs
 
 
Tabelarni podarki za Februar 5, 2018
Čas Temperatura Točka rosišča Zračni tlak Veter Hitrost vetra Sunki vetra Vlažnost Intenziteta padavin (urna)
-17.8 °C -17.8 °C 0 hPa Calm     Humidity % 0 mm
00:01 -17.9 °C -18.3 °C 34567.7 hPa Calm     95 % 0 mm
00:06 -17.9 °C -18.3 °C 34567.7 hPa ENE 2.1 km/h 8.9 km/h 95 % 0 mm
00:11 -17.9 °C -18.3 °C 34533.8 hPa ENE 4.3 km/h 8.9 km/h 95 % 0 mm
00:16 -17.9 °C -18.3 °C 34533.8 hPa ENE 4.7 km/h 7.6 km/h 95 % 0 mm
00:21 -17.9 °C -18.3 °C 34533.8 hPa East 5.1 km/h 8.9 km/h 95 % 0 mm
00:26 -18 °C -18.4 °C 34567.7 hPa ENE 6.4 km/h 11.1 km/h 95 % 0 mm
00:31 -18 °C -18.4 °C 34567.7 hPa ENE 6.4 km/h 11.1 km/h 95 % 0 mm
00:36 -18 °C -18.4 °C 34567.7 hPa East 4.7 km/h 8.9 km/h 95 % 0 mm
00:41 -18 °C -18.4 °C 34567.7 hPa East 4.7 km/h 8 km/h 95 % 0 mm
00:46 -18 °C -18.4 °C 34567.7 hPa ESE 5.6 km/h 8.9 km/h 95 % 0 mm
00:51 -18 °C -18.4 °C 34567.7 hPa ESE 6.3 km/h 9.8 km/h 95 % 0 mm
00:56 -18 °C -18.4 °C 34533.8 hPa East 6.8 km/h 9.8 km/h 95 % 0 mm
01:01 -18 °C -18.4 °C 34533.8 hPa East 6.3 km/h 9.8 km/h 95 % 0 mm
01:11 -18 °C -18.4 °C 34567.7 hPa East 4.2 km/h 9.3 km/h 95 % 0 mm
01:16 -18 °C -18.4 °C 34567.7 hPa East 4.3 km/h 8 km/h 95 % 0 mm
01:21 -18 °C -18.4 °C 34567.7 hPa East 5.6 km/h 8 km/h 95 % 0 mm
01:26 -18 °C -18.4 °C 34567.7 hPa ENE 5.6 km/h 7.6 km/h 95 % 0 mm
01:31 -18 °C -18.4 °C 34567.7 hPa ENE 6.3 km/h 8 km/h 95 % 0 mm
01:34 -18 °C -18.4 °C 34567.7 hPa ENE 6.8 km/h 8.9 km/h 95 % 0 mm
01:39 -18 °C -18.4 °C 34567.7 hPa ENE 6.8 km/h 9.3 km/h 95 % 0 mm
01:44 -18 °C -18.4 °C 34533.8 hPa ENE 6 km/h 9.3 km/h 95 % 0 mm
01:49 -18 °C -18.4 °C 34533.8 hPa ENE 3.9 km/h 8 km/h 95 % 0 mm
01:54 -18 °C -18.4 °C 34533.8 hPa ENE 0.8 km/h 4.2 km/h 95 % 0 mm
01:59 -18 °C -18.4 °C 34533.8 hPa ENE 0.8 km/h 6.4 km/h 95 % 0 mm
02:04 -18 °C -18.4 °C 34533.8 hPa East 2.9 km/h 6.4 km/h 95 % 0 mm
02:09 -18 °C -18.4 °C 34533.8 hPa East 3.4 km/h 7.6 km/h 95 % 0 mm
02:14 -18 °C -18.4 °C 34567.7 hPa East 4.2 km/h 7.6 km/h 95 % 0 mm
02:19 -18 °C -18.4 °C 34567.7 hPa East 5.1 km/h 8.9 km/h 95 % 0 mm
02:24 -17.9 °C -18.3 °C 34567.7 hPa East 5.5 km/h 8.9 km/h 95 % 0 mm
02:29 -17.9 °C -18.3 °C 34567.7 hPa ESE 4.7 km/h 7.6 km/h 95 % 0 mm
02:34 -17.9 °C -18.3 °C 34567.7 hPa ESE 3.1 km/h 7.6 km/h 95 % 0 mm
02:39 -18 °C -18.4 °C 34567.7 hPa East 3.7 km/h 7.6 km/h 95 % 0 mm
02:44 -18 °C -18.4 °C 34567.7 hPa East 4.7 km/h 7.6 km/h 95 % 0 mm
02:49 -18 °C -18.4 °C 34567.7 hPa East 5.5 km/h 8 km/h 95 % 0 mm
02:54 -18 °C -18.4 °C 34567.7 hPa East 6 km/h 8.9 km/h 95 % 0 mm
02:59 -18 °C -18.4 °C 34567.7 hPa East 6 km/h 8.9 km/h 95 % 0 mm
03:04 -18 °C -18.4 °C 34567.7 hPa East 5.1 km/h 8.9 km/h 95 % 0 mm
03:09 -18 °C -18.4 °C 34567.7 hPa East 5 km/h 8 km/h 95 % 0 mm
03:14 -18 °C -18.4 °C 34567.7 hPa East 5.5 km/h 8 km/h 95 % 0 mm
03:19 -18 °C -18.4 °C 34567.7 hPa East 5 km/h 8 km/h 95 % 0 mm
03:24 -18.1 °C -18.4 °C 34567.7 hPa ESE 5 km/h 8 km/h 95 % 0 mm
03:29 -18.1 °C -18.4 °C 34567.7 hPa ESE 5.1 km/h 8 km/h 95 % 0 mm
03:34 -18.1 °C -18.4 °C 34567.7 hPa East 4.3 km/h 7.6 km/h 95 % 0 mm
03:39 -18.1 °C -18.4 °C 34567.7 hPa East 3.7 km/h 6.4 km/h 95 % 0 mm
03:44 -18.1 °C -18.4 °C 34601.5 hPa ESE 4.2 km/h 6.4 km/h 95 % 0 mm
03:49 -18.1 °C -18.4 °C 34601.5 hPa East 4.7 km/h 8.9 km/h 95 % 0 mm
03:54 -18.1 °C -18.4 °C 34601.5 hPa East 4.7 km/h 8.9 km/h 95 % 0 mm
03:59 -18.1 °C -18.4 °C 34567.7 hPa East 3.9 km/h 8 km/h 95 % 0 mm
04:04 -18.1 °C -18.4 °C 34567.7 hPa East 3.1 km/h 6.9 km/h 95 % 0 mm
04:09 -18.1 °C -18.4 °C 34567.7 hPa East 2.6 km/h 6.9 km/h 95 % 0 mm
04:14 -18.1 °C -18.4 °C 34601.5 hPa ESE 2.6 km/h 6.4 km/h 95 % 0 mm
04:19 -18.1 °C -18.4 °C 34601.5 hPa ESE 1.8 km/h 6.4 km/h 95 % 0 mm
04:24 -18.1 °C -18.4 °C 34601.5 hPa NNE 1 km/h 5.1 km/h 95 % 0 mm
04:29 -18.1 °C -18.4 °C 34601.5 hPa NNE 1.3 km/h 5.1 km/h 95 % 0 mm
04:34 -18.1 °C -18.5 °C 34601.5 hPa ENE 2.3 km/h 7.6 km/h 95 % 0 mm
04:39 -18.1 °C -18.5 °C 34601.5 hPa East 2.6 km/h 7.6 km/h 95 % 0 mm
04:44 -18.1 °C -18.5 °C 34601.5 hPa East 0.8 km/h 6.4 km/h 95 % 0 mm
04:49 -18.1 °C -18.5 °C 34601.5 hPa NE 1.3 km/h 5.6 km/h 95 % 0 mm
04:54 -18.1 °C -18.5 °C 34601.5 hPa ENE 2.1 km/h 5.6 km/h 95 % 0 mm
04:59 -18.1 °C -18.5 °C 34635.4 hPa East 2.6 km/h 8.9 km/h 95 % 0 mm
05:04 -18.1 °C -18.5 °C 34635.4 hPa East 5 km/h 8.9 km/h 95 % 0 mm
05:09 -18.2 °C -18.6 °C 34635.4 hPa East 4.3 km/h 8 km/h 95 % 0 mm
05:14 -18.2 °C -18.6 °C 34635.4 hPa East 2.9 km/h 8.9 km/h 95 % 0 mm
05:19 -18.2 °C -18.6 °C 34635.4 hPa East 2.3 km/h 8.9 km/h 95 % 0 mm
05:24 -18.2 °C -18.6 °C 34635.4 hPa East 1.8 km/h 6.4 km/h 95 % 0 mm
05:29 -18.2 °C -18.6 °C 34635.4 hPa ENE 1.3 km/h 6.4 km/h 95 % 0 mm
05:34 -18.2 °C -18.6 °C 34635.4 hPa ENE 0.3 km/h 2.9 km/h 95 % 0 mm
05:39 -18.2 °C -18.6 °C 34635.4 hPa Calm     95 % 0 mm
05:44 -18.2 °C -18.6 °C 34635.4 hPa East 1.3 km/h 7.6 km/h 95 % 0 mm
05:49 -18.2 °C -18.6 °C 34635.4 hPa East 2.1 km/h 7.6 km/h 95 % 0 mm
05:54 -18.2 °C -18.6 °C 34635.4 hPa East 1 km/h 6.4 km/h 95 % 0 mm
05:59 -18.2 °C -18.6 °C 34635.4 hPa Calm   2.3 km/h 95 % 0 mm
06:04 -18.2 °C -18.6 °C 34635.4 hPa Calm     95 % 0 mm
06:09 -18.1 °C -18.5 °C 34635.4 hPa Calm     95 % 0 mm
06:14 -18.1 °C -18.5 °C 34635.4 hPa Calm   4.2 km/h 95 % 0 mm
06:19 -18.1 °C -18.5 °C 34635.4 hPa East 0.8 km/h 4.2 km/h 95 % 0 mm
06:24 -18.1 °C -18.5 °C 34635.4 hPa East 0.8 km/h 4.2 km/h 95 % 0 mm
06:29 -18.1 °C -18.4 °C 34635.4 hPa Calm     95 % 0 mm
06:34 -18.1 °C -18.4 °C 34635.4 hPa Calm   3.4 km/h 95 % 0 mm
06:39 -18.1 °C -18.4 °C 34635.4 hPa Calm   3.4 km/h 95 % 0 mm
06:44 -18.1 °C -18.4 °C 34635.4 hPa Calm   3.4 km/h 95 % 0 mm
06:49 -18 °C -18.4 °C 34635.4 hPa Calm     95 % 0 mm
06:54 -18 °C -18.4 °C 34635.4 hPa Calm     95 % 0 mm
06:59 -18 °C -18.4 °C 34635.4 hPa Calm     95 % 0 mm
07:04 -18 °C -18.4 °C 34635.4 hPa Calm     95 % 0 mm
07:09 -18 °C -18.4 °C 34635.4 hPa Calm     95 % 0 mm
07:14 -18 °C -18.4 °C 34635.4 hPa Calm     95 % 0 mm
07:19 -18 °C -18.4 °C 34635.4 hPa Calm     95 % 0 mm
07:24 -17.9 °C -18.3 °C 34635.4 hPa Calm     95 % 0 mm
07:29 -17.9 °C -18.3 °C 34601.5 hPa Calm     95 % 0 mm
07:34 -17.9 °C -18.3 °C 34601.5 hPa Calm     95 % 0 mm
07:39 -17.9 °C -18.3 °C 34601.5 hPa Calm     95 % 0 mm
07:44 -17.9 °C -18.3 °C 34635.4 hPa NE 0.8 km/h 5.1 km/h 95 % 0 mm
07:49 -17.9 °C -18.3 °C 34635.4 hPa NE 1.6 km/h 5.1 km/h 95 % 0 mm
07:54 -17.9 °C -18.3 °C 34635.4 hPa ENE 0.8 km/h 4.2 km/h 95 % 0 mm
07:59 -17.8 °C -18.2 °C 34635.4 hPa East 0.5 km/h 4.2 km/h 95 % 0 mm
08:04 -17.8 °C -18.2 °C 34635.4 hPa ESE 0.8 km/h 6.4 km/h 95 % 0 mm
08:09 -17.8 °C -18.2 °C 34635.4 hPa SE 1 km/h 6.4 km/h 95 % 0 mm
08:14 -17.8 °C -18.2 °C 34635.4 hPa SE 0.8 km/h 6.4 km/h 95 % 0 mm
08:19 -17.7 °C -18.1 °C 34635.4 hPa ENE 3.1 km/h 9.8 km/h 95 % 0 mm
08:24 -17.7 °C -18.1 °C 34635.4 hPa ENE 4.3 km/h 9.8 km/h 95 % 0 mm
08:29 -17.7 °C -18.1 °C 34635.4 hPa ESE 1.3 km/h 6.4 km/h 95 % 0 mm
08:34 -17.7 °C -18.1 °C 34635.4 hPa ESE 1.3 km/h 6.4 km/h 95 % 0 mm
08:39 -17.7 °C -18.1 °C 34635.4 hPa ESE 2.3 km/h 5.1 km/h 95 % 0 mm
08:44 -17.6 °C -18 °C 34669.3 hPa ESE 1.8 km/h 5.1 km/h 95 % 0 mm
08:49 -17.6 °C -18 °C 34669.3 hPa SE 0.5 km/h 2.9 km/h 95 % 0 mm
08:54 -17.6 °C -18 °C 34669.3 hPa ESE 0.5 km/h 4.2 km/h 95 % 0 mm
08:59 -17.6 °C -18 °C 34669.3 hPa East 0.5 km/h 8 km/h 95 % 0 mm
09:04 -17.6 °C -18 °C 34669.3 hPa East 1.3 km/h 8 km/h 95 % 0 mm
09:09 -17.6 °C -18 °C 34669.3 hPa East 1.6 km/h 5.6 km/h 95 % 0 mm
09:14 -17.6 °C -17.9 °C 34669.3 hPa ESE 1.8 km/h 6.9 km/h 95 % 0 mm
09:19 -17.6 °C -17.9 °C 34669.3 hPa ESE 3.9 km/h 8 km/h 95 % 0 mm
09:24 -17.5 °C -17.9 °C 34669.3 hPa ESE 4.3 km/h 8 km/h 95 % 0 mm
09:29 -17.5 °C -17.9 °C 34669.3 hPa ESE 3.1 km/h 6.9 km/h 95 % 0 mm
09:34 -17.4 °C -17.8 °C 34669.3 hPa ESE 3.4 km/h 8 km/h 95 % 0 mm
09:39 -17.4 °C -17.8 °C 34669.3 hPa ESE 5.1 km/h 8 km/h 95 % 0 mm
09:44 -17.4 °C -17.8 °C 34635.4 hPa East 5.5 km/h 8 km/h 95 % 0 mm
09:49 -17.4 °C -17.8 °C 34635.4 hPa ENE 5.1 km/h 9.3 km/h 95 % 0 mm
09:54 -17.4 °C -17.8 °C 34635.4 hPa ENE 3.4 km/h 9.3 km/h 95 % 0 mm
09:59 -17.4 °C -17.8 °C 34635.4 hPa ENE 2.3 km/h 7.6 km/h 95 % 0 mm
10:04 -17.4 °C -17.8 °C 34635.4 hPa ENE 2.1 km/h 7.6 km/h 95 % 0 mm
10:09 -17.4 °C -17.8 °C 34669.3 hPa East 2.1 km/h 5.6 km/h 95 % 0 mm
10:14 -17.4 °C -17.8 °C 34669.3 hPa ESE 3.1 km/h 5.6 km/h 95 % 0 mm
10:19 -17.3 °C -17.7 °C 34669.3 hPa SSE 2.3 km/h 6.4 km/h 95 % 0 mm
10:24 -17.3 °C -17.7 °C 34669.3 hPa SSW 2.9 km/h 6.9 km/h 95 % 0 mm
10:30 -17.3 °C -17.7 °C 34669.3 hPa SSW 5 km/h 6.9 km/h 95 % 0 mm
10:35 -17.3 °C -17.7 °C 34669.3 hPa SW 4.3 km/h 6.9 km/h 95 % 0 mm
10:40 -17.3 °C -17.7 °C 34669.3 hPa SW 3.1 km/h 6.4 km/h 95 % 0 mm
10:45 -17.3 °C -17.7 °C 34669.3 hPa SW 1 km/h 5.1 km/h 95 % 0 mm
10:50 -17.3 °C -17.7 °C 34669.3 hPa East 0.5 km/h 7.6 km/h 95 % 0 mm
10:55 -17.2 °C -17.7 °C 34635.4 hPa ENE 3.4 km/h 8 km/h 94 % 0 mm
11:00 -17.2 °C -17.7 °C 34635.4 hPa East 4.7 km/h 8 km/h 94 % 0 mm
11:05 -17.1 °C -17.6 °C 34635.4 hPa ESE 2.6 km/h 6.4 km/h 94 % 0 mm
11:10 -17 °C -17.4 °C 34635.4 hPa SE 1.6 km/h 5.6 km/h 94 % 0 mm
11:15 -16.9 °C -17.3 °C 34635.4 hPa SE 1.6 km/h 5.6 km/h 95 % 0 mm
11:20 -16.9 °C -17.4 °C 34635.4 hPa SSE 1.6 km/h 6.9 km/h 94 % 0 mm
11:25 -16.9 °C -17.4 °C 34635.4 hPa SSE 3.9 km/h 9.3 km/h 94 % 0 mm
11:30 -16.9 °C -17.4 °C 34635.4 hPa SSE 5 km/h 9.3 km/h 94 % 0 mm
11:35 -16.8 °C -17.3 °C 34635.4 hPa SSE 3.4 km/h 6.9 km/h 94 % 0 mm
11:40 -16.8 °C -17.3 °C 34635.4 hPa ESE 1 km/h 5.6 km/h 94 % 0 mm
11:45 -16.7 °C -17.2 °C 34635.4 hPa Calm     94 % 0 mm
11:50 -16.7 °C -17.2 °C 34635.4 hPa Calm     94 % 0 mm
11:55 -16.7 °C -17.2 °C 34601.5 hPa ENE 1.3 km/h 8 km/h 94 % 0 mm
12:00 -16.8 °C -17.3 °C 34601.5 hPa ENE 4.7 km/h 9.3 km/h 94 % 0 mm
12:05 -16.7 °C -17.2 °C 34601.5 hPa East 5.5 km/h 9.3 km/h 94 % 0 mm
12:10 -16.7 °C -17.2 °C 34635.4 hPa SE 4.3 km/h 8 km/h 94 % 0 mm
12:15 -16.7 °C -17.2 °C 34635.4 hPa South 3.9 km/h 8.9 km/h 93 % 0 mm
12:20 -16.7 °C -17.2 °C 34635.4 hPa SW 2.6 km/h 8.9 km/h 94 % 0 mm
12:25 -16.7 °C -17.3 °C 34635.4 hPa WSW 2.1 km/h 7.6 km/h 93 % 0 mm
12:30 -16.7 °C -17.3 °C 34635.4 hPa West 1.3 km/h 5.1 km/h 93 % 0 mm
12:35 -16.7 °C -17.3 °C 34635.4 hPa Calm     93 % 0 mm
12:40 -16.7 °C -17.3 °C 34601.5 hPa Calm   6.4 km/h 93 % 0 mm
12:45 -16.7 °C -17.3 °C 34601.5 hPa WSW 2.1 km/h 7.6 km/h 93 % 0 mm
12:50 -16.7 °C -17.3 °C 34601.5 hPa WSW 5 km/h 11.1 km/h 93 % 0 mm
12:55 -16.7 °C -17.4 °C 34669.3 hPa WSW 3.1 km/h 11.1 km/h 92 % 0 mm
13:00 -16.8 °C -17.4 °C 34669.3 hPa WSW 0.8 km/h 3.4 km/h 92 % 0 mm
13:05 -16.7 °C -17.4 °C 34669.3 hPa WSW 0.5 km/h 4.2 km/h 92 % 0 mm
13:10 -16.7 °C -17.4 °C 34635.4 hPa NW 1 km/h 5.6 km/h 92 % 0 mm
13:15 -16.7 °C -17.4 °C 34635.4 hPa WNW 2.3 km/h 7.6 km/h 92 % 0 mm
13:20 -16.7 °C -17.4 °C 34635.4 hPa WNW 1.8 km/h 7.6 km/h 92 % 0 mm
13:25 -16.7 °C -17.4 °C 34635.4 hPa West 1.3 km/h 6.9 km/h 92 % 0 mm
13:30 -16.7 °C -17.4 °C 34635.4 hPa NW 1.3 km/h 5.6 km/h 91 % 0 mm
13:35 -16.8 °C -17.5 °C 34635.4 hPa North 1.8 km/h 6.9 km/h 91 % 0 mm
13:40 -16.8 °C -17.5 °C 34601.5 hPa North 1.6 km/h 6.9 km/h 91 % 0 mm
13:45 -16.7 °C -17.4 °C 34601.5 hPa NE 0.8 km/h 6.4 km/h 91 % 0 mm
13:50 -16.7 °C -17.4 °C 34601.5 hPa NE 1.3 km/h 6.4 km/h 91 % 0 mm
13:55 -16.7 °C -17.4 °C 34601.5 hPa NNE 1 km/h 5.1 km/h 91 % 0 mm
14:00 -16.7 °C -17.4 °C 34601.5 hPa NNE 0.5 km/h 5.1 km/h 91 % 0 mm
14:05 -16.7 °C -17.4 °C 34601.5 hPa SW 1.6 km/h 6.9 km/h 90 % 0 mm
14:10 -16.7 °C -17.6 °C 34601.5 hPa WSW 3.4 km/h 7.6 km/h 90 % 0 mm
14:16 -16.7 °C -17.6 °C 34601.5 hPa WSW 2.1 km/h 7.6 km/h 90 % 0 mm
14:21 -16.7 °C -17.6 °C 34601.5 hPa SW 3.1 km/h 6.9 km/h 90 % 0 mm
14:26 -16.7 °C -17.6 °C 34601.5 hPa WSW 3.9 km/h 6.9 km/h 90 % 0 mm
14:31 -16.7 °C -17.6 °C 34601.5 hPa SW 2.1 km/h 6.4 km/h 90 % 0 mm
14:36 -16.7 °C -17.6 °C 34601.5 hPa WSW 1.3 km/h 6.4 km/h 90 % 0 mm
14:41 -16.7 °C -17.6 °C 34601.5 hPa WNW 2.3 km/h 9.8 km/h 90 % 0 mm
14:46 -16.7 °C -17.6 °C 34601.5 hPa WNW 2.6 km/h 9.8 km/h 89 % 0 mm
14:51 -16.7 °C -17.6 °C 34601.5 hPa WNW 0.5 km/h 4.2 km/h 89 % 0 mm
14:56 -16.7 °C -17.6 °C 34601.5 hPa Calm     89 % 0 mm
15:01 -16.7 °C -17.6 °C 34601.5 hPa Calm     89 % 0 mm
15:06 -16.7 °C -17.6 °C 34601.5 hPa Calm     89 % 0 mm
15:11 -16.7 °C -17.6 °C 34601.5 hPa NW 0.3 km/h 4.2 km/h 89 % 0 mm
15:16 -16.7 °C -17.6 °C 34601.5 hPa NE 1.3 km/h 6.9 km/h 89 % 0 mm
15:21 -16.7 °C -17.6 °C 34601.5 hPa ENE 3.7 km/h 7.6 km/h 89 % 0 mm
15:26 -16.7 °C -17.6 °C 34567.7 hPa NE 4.3 km/h 7.6 km/h 89 % 0 mm
15:31 -16.7 °C -17.7 °C 34567.7 hPa East 3.7 km/h 6.4 km/h 88 % 0 mm
15:36 -16.7 °C -17.7 °C 34567.7 hPa SE 3.9 km/h 7.6 km/h 88 % 0 mm
15:41 -16.7 °C -17.7 °C 34567.7 hPa SSE 4.2 km/h 7.6 km/h 88 % 0 mm
15:46 -16.7 °C -17.7 °C 34567.7 hPa SSE 2.9 km/h 6.4 km/h 88 % 0 mm
15:51 -16.7 °C -17.7 °C 34567.7 hPa SSE 0.8 km/h 5.1 km/h 88 % 0 mm
15:56 -16.7 °C -17.7 °C 34567.7 hPa SW 0.3 km/h 5.1 km/h 88 % 0 mm
16:01 -16.7 °C -17.7 °C 34567.7 hPa SW 0.3 km/h 5.1 km/h 88 % 0 mm
16:06 -16.8 °C -17.8 °C 34567.7 hPa SW 1.6 km/h 5.6 km/h 88 % 0 mm
16:11 -16.8 °C -17.8 °C 34567.7 hPa SW 2.9 km/h 5.6 km/h 88 % 0 mm
16:16 -16.8 °C -17.8 °C 34567.7 hPa SW 1.6 km/h 4.2 km/h 88 % 0 mm
16:21 -16.8 °C -17.8 °C 34567.7 hPa North 0.3 km/h   88 % 0 mm
16:26 -16.8 °C -17.8 °C 34567.7 hPa Calm     88 % 0 mm
16:31 -16.8 °C -17.8 °C 34567.7 hPa SSW 1 km/h 8.9 km/h 88 % 0 mm
16:36 -16.8 °C -17.8 °C 34567.7 hPa SSE 2.6 km/h 8.9 km/h 88 % 0 mm
16:41 -16.9 °C -17.9 °C 34533.8 hPa SE 4.2 km/h 9.3 km/h 88 % 0 mm
16:46 -16.9 °C -17.9 °C 34533.8 hPa SE 5.6 km/h 11.1 km/h 88 % 0 mm
16:51 -16.9 °C -17.9 °C 34533.8 hPa SE 7.7 km/h 14 km/h 88 % 0 mm
16:56 -16.9 °C -17.9 °C 34567.7 hPa SE 7.2 km/h 14 km/h 88 % 0 mm
17:01 -17 °C -18 °C 34567.7 hPa SE 5 km/h 9.3 km/h 88 % 0 mm
17:06 -17 °C -18 °C 34567.7 hPa SSE 5.5 km/h 9.3 km/h 88 % 0 mm
17:11 -17 °C -18 °C 34533.8 hPa SSW 5.1 km/h 10.3 km/h 88 % 0 mm
17:16 -17.1 °C -18.1 °C 34533.8 hPa WSW 5.5 km/h 10.3 km/h 87 % 0 mm
17:21 -17.1 °C -18.1 °C 34533.8 hPa West 5.6 km/h 10.3 km/h 87 % 0 mm
17:26 -17.1 °C -18.2 °C 34533.8 hPa SW 5.1 km/h 10.3 km/h 87 % 0 mm
17:31 -17.2 °C -18.2 °C 34533.8 hPa SW 5.6 km/h 10.3 km/h 87 % 0 mm
17:36 -17.2 °C -18.2 °C 34533.8 hPa SSW 5 km/h 9.8 km/h 87 % 0 mm
17:41 -17.2 °C -18.2 °C 34567.7 hPa SSW 3.7 km/h 8 km/h 87 % 0 mm
17:46 -17.2 °C -18.2 °C 34567.7 hPa SSW 4.3 km/h 8.9 km/h 87 % 0 mm
17:51 -17.2 °C -18.2 °C 34567.7 hPa SSW 4.7 km/h 8.9 km/h 87 % 0 mm
17:54 -17.2 °C -18.3 °C 34567.7 hPa SSW 3.9 km/h 8.9 km/h 87 % 0 mm
17:59 -17.2 °C -18.3 °C 34567.7 hPa SSW 3.9 km/h 9.3 km/h 87 % 0 mm
18:04 -17.2 °C -18.2 °C 34567.7 hPa SSW 6 km/h 9.3 km/h 88 % 0 mm
18:09 -17.2 °C -18.2 °C 34567.7 hPa SSW 5.5 km/h 8 km/h 88 % 0 mm
18:14 -17.2 °C -18.2 °C 34567.7 hPa SSW 3.9 km/h 8.9 km/h 88 % 0 mm
18:19 -17.2 °C -18.2 °C 34567.7 hPa South 2.6 km/h 8.9 km/h 88 % 0 mm
18:24 -17.2 °C -18.2 °C 34567.7 hPa South 1.3 km/h 6.9 km/h 88 % 0 mm
18:29 -17.3 °C -18.3 °C 34567.7 hPa SSE 0.8 km/h 5.1 km/h 88 % 0 mm
18:34 -17.3 °C -18.3 °C 34567.7 hPa SSE 1.8 km/h 8 km/h 88 % 0 mm
18:39 -17.3 °C -18.3 °C 34567.7 hPa SSE 2.1 km/h 8 km/h 88 % 0 mm
18:44 -17.3 °C -18.3 °C 34567.7 hPa South 1.8 km/h 6.9 km/h 88 % 0 mm
18:49 -17.3 °C -18.3 °C 34567.7 hPa South 1.3 km/h 5.1 km/h 88 % 0 mm
18:54 -17.3 °C -18.3 °C 34567.7 hPa South 0.5 km/h 3.4 km/h 88 % 0 mm
18:59 -17.3 °C -18.3 °C 34567.7 hPa SSW 1.3 km/h 5.1 km/h 88 % 0 mm
19:04 -17.3 °C -18.3 °C 34567.7 hPa SSW 1.3 km/h 5.1 km/h 88 % 0 mm
19:09 -17.3 °C -18.3 °C 34567.7 hPa South 1.6 km/h 6.9 km/h 88 % 0 mm
19:14 -17.3 °C -18.3 °C 34601.5 hPa South 2.1 km/h 6.9 km/h 88 % 0 mm
19:19 -17.3 °C -18.3 °C 34601.5 hPa SSE 2.6 km/h 8 km/h 88 % 0 mm
19:24 -17.3 °C -18.3 °C 34601.5 hPa SSE 3.1 km/h 8.9 km/h 88 % 0 mm
19:29 -17.3 °C -18.3 °C 34567.7 hPa SE 3.7 km/h 10.3 km/h 88 % 0 mm
19:34 -17.3 °C -18.3 °C 34567.7 hPa SE 2.9 km/h 10.3 km/h 88 % 0 mm
19:39 -17.3 °C -18.3 °C 34567.7 hPa SSW 1 km/h 6.4 km/h 88 % 0 mm
19:44 -17.3 °C -18.3 °C 34567.7 hPa SSW 2.6 km/h 10.3 km/h 88 % 0 mm
19:49 -17.4 °C -18.4 °C 34567.7 hPa SW 4.7 km/h 10.3 km/h 88 % 0 mm
19:54 -17.4 °C -18.4 °C 34567.7 hPa WSW 3.9 km/h 6.9 km/h 88 % 0 mm
19:59 -17.4 °C -18.3 °C 34567.7 hPa WSW 3.7 km/h 6.9 km/h 89 % 0 mm
20:04 -17.4 °C -18.3 °C 34567.7 hPa WSW 5 km/h 9.8 km/h 89 % 0 mm
20:09 -17.4 °C -18.3 °C 34567.7 hPa WSW 6.3 km/h 9.8 km/h 89 % 0 mm
20:14 -17.4 °C -18.3 °C 34533.8 hPa SW 6.4 km/h 9.8 km/h 89 % 0 mm
20:19 -17.4 °C -18.3 °C 34533.8 hPa SSW 5.6 km/h 9.8 km/h 89 % 0 mm
20:24 -17.4 °C -18.3 °C 34533.8 hPa South 5.6 km/h 12.7 km/h 89 % 0 mm
20:29 -17.4 °C -18.3 °C 34533.8 hPa South 6.9 km/h 12.7 km/h 89 % 0 mm
20:34 -17.4 °C -18.3 °C 34533.8 hPa South 6.9 km/h 11.1 km/h 89 % 0 mm
20:39 -17.4 °C -18.3 °C 34533.8 hPa SSW 6.3 km/h 9.3 km/h 89 % 0 mm
20:44 -17.5 °C -18.4 °C 34567.7 hPa South 6 km/h 9.8 km/h 89 % 0 mm
20:49 -17.5 °C -18.4 °C 34567.7 hPa South 5 km/h 9.8 km/h 89 % 0 mm
20:54 -17.5 °C -18.4 °C 34567.7 hPa SSW 5.6 km/h 10.3 km/h 89 % 0 mm
20:59 -17.6 °C -18.4 °C 34533.8 hPa SSW 6.8 km/h 10.3 km/h 89 % 0 mm
21:04 -17.6 °C -18.4 °C 34533.8 hPa SSW 3.1 km/h 8.9 km/h 89 % 0 mm
21:09 -17.6 °C -18.4 °C 34533.8 hPa SSW 1.6 km/h 7.6 km/h 89 % 0 mm
21:14 -17.6 °C -18.4 °C 34567.7 hPa SSW 4.2 km/h 9.3 km/h 89 % 0 mm
21:19 -17.6 °C -18.4 °C 34567.7 hPa SW 5.6 km/h 9.8 km/h 89 % 0 mm
21:24 -17.6 °C -18.4 °C 34567.7 hPa SSW 6.8 km/h 12.2 km/h 89 % 0 mm
21:29 -17.6 °C -18.4 °C 34567.7 hPa South 8 km/h 14.5 km/h 89 % 0 mm
21:34 -17.6 °C -18.4 °C 34567.7 hPa South 8.5 km/h 15 km/h 89 % 0 mm
21:39 -17.6 °C -18.4 °C 34567.7 hPa South 6.4 km/h 15 km/h 89 % 0 mm
21:44 -17.6 °C -18.4 °C 34567.7 hPa South 5.5 km/h 10.3 km/h 89 % 0 mm
21:49 -17.6 °C -18.4 °C 34567.7 hPa SSW 6 km/h 9.3 km/h 89 % 0 mm
21:54 -17.6 °C -18.4 °C 34567.7 hPa SSW 5.5 km/h 9.3 km/h 89 % 0 mm
21:59 -17.6 °C -18.4 °C 34601.5 hPa South 5 km/h 9.3 km/h 89 % 0 mm
22:04 -17.6 °C -18.5 °C 34601.5 hPa South 5.1 km/h 9.3 km/h 89 % 0 mm
22:09 -17.6 °C -18.5 °C 34601.5 hPa South 4.2 km/h 9.3 km/h 89 % 0 mm
22:14 -17.6 °C -18.5 °C 34601.5 hPa South 3.9 km/h 7.6 km/h 89 % 0 mm
22:19 -17.6 °C -18.5 °C 34601.5 hPa SSW 5.6 km/h 10.3 km/h 89 % 0 mm
22:24 -17.7 °C -18.6 °C 34567.7 hPa WSW 6.4 km/h 10.3 km/h 89 % 0 mm
22:29 -17.7 °C -18.6 °C 34567.7 hPa WSW 5.1 km/h 10.3 km/h 89 % 0 mm
22:34 -17.7 °C -18.6 °C 34567.7 hPa WSW 4.7 km/h 9.3 km/h 89 % 0 mm
22:39 -17.7 °C -18.6 °C 34567.7 hPa WSW 6.8 km/h 10.3 km/h 89 % 0 mm
22:44 -17.7 °C -18.6 °C 34567.7 hPa WSW 7.7 km/h 10.3 km/h 89 % 0 mm
22:50 -17.7 °C -18.6 °C 34567.7 hPa SW 5 km/h 9.8 km/h 89 % 0 mm
22:55 -17.7 °C -18.6 °C 34567.7 hPa SSE 2.9 km/h 6.9 km/h 89 % 0 mm
23:00 -17.7 °C -18.6 °C 34567.7 hPa SSE 2.1 km/h 6.9 km/h 89 % 0 mm
23:05 -17.7 °C -18.6 °C 34567.7 hPa SW 1 km/h 6.4 km/h 89 % 0 mm
23:10 -17.7 °C -18.6 °C 34567.7 hPa SW 0.8 km/h 2.9 km/h 89 % 0 mm
23:15 -17.7 °C -18.6 °C 34567.7 hPa South 0.8 km/h 6.9 km/h 89 % 0 mm
23:20 -17.7 °C -18.6 °C 34567.7 hPa SSW 1.3 km/h 6.9 km/h 89 % 0 mm
23:25 -17.7 °C -18.5 °C 34567.7 hPa SSW 0.5 km/h 4.2 km/h 90 % 0 mm
23:30 -17.7 °C -18.5 °C 34567.7 hPa Calm     90 % 0 mm
23:35 -17.7 °C -18.5 °C 34567.7 hPa Calm     90 % 0 mm
23:40 -17.7 °C -18.5 °C 34567.7 hPa Calm     90 % 0 mm
23:45 -17.7 °C -18.5 °C 34567.7 hPa Calm     90 % 0 mm
23:50 -17.7 °C -18.5 °C 34567.7 hPa Calm     90 % 0 mm
23:55 -17.7 °C -18.5 °C 34567.7 hPa Calm     90 % 0 mm
Vremenska postaja Senovo
Podatki zbrani iz Weather Underground - 3 mb

Script developed by  Jim McMurry - jmcmurry@mwt.net Adapted for the template by  Wim van der Kuil - Leuven-Template.eu

Vremenski podatki so objavljeni na:

European Weather Network

WeatherCloud

Weather Underground

AWEKAS

HAMweather, WeatherForYou, PWS Weather

MapView

Geostik

Slovenia weather network

Oprema, ki se uporablja:

Vremenski program
Cumulus

Vremenski server
Asus

Cumulus

Asus